createdAt,value
2022-12-11T00:00:38.104Z,100736.97
2022-12-11T00:03:30.277Z,100734.06
2022-12-11T00:06:02.744Z,100737.38
2022-12-11T00:08:34.902Z,100723.72
2022-12-11T00:11:12.432Z,100724.50
2022-12-11T00:13:45.091Z,100718.34
2022-12-11T00:16:19.535Z,100714.66
2022-12-11T00:18:54.790Z,100716.06
2022-12-11T00:21:51.202Z,100712.78
2022-12-11T00:24:30.121Z,100720.84
2022-12-11T00:27:04.933Z,100719.00
2022-12-11T00:29:38.055Z,100717.63
2022-12-11T00:32:13.070Z,100725.03
2022-12-11T00:34:49.262Z,100727.66
2022-12-11T00:37:21.888Z,100725.03
2022-12-11T00:39:57.097Z,100726.88
2022-12-11T00:42:33.149Z,100724.28
2022-12-11T00:45:04.767Z,100721.22
2022-12-11T00:47:37.147Z,100729.19
2022-12-11T00:50:10.239Z,100722.41
2022-12-11T00:52:42.790Z,100722.03
2022-12-11T00:55:16.109Z,100721.28
2022-12-11T00:57:51.004Z,100725.09
2022-12-11T01:00:23.125Z,100711.53
2022-12-11T01:02:56.104Z,100715.44
2022-12-11T01:05:27.781Z,100709.63
2022-12-11T01:08:00.137Z,100716.41
2022-12-11T01:10:32.039Z,100708.56
2022-12-11T01:13:10.082Z,100709.38
2022-12-11T01:15:46.299Z,100726.94
2022-12-11T01:18:20.284Z,100725.22
2022-12-11T01:20:52.071Z,100730.84
2022-12-11T01:23:43.579Z,100734.84
2022-12-11T01:26:18.701Z,100737.69
2022-12-11T01:28:56.222Z,100728.81
2022-12-11T01:31:28.339Z,100736.38
2022-12-11T01:34:00.576Z,100731.72
2022-12-11T01:36:32.405Z,100737.97
2022-12-11T01:39:26.560Z,100721.97
2022-12-11T01:42:04.648Z,100730.69
2022-12-11T01:45:21.533Z,100716.31
2022-12-11T01:48:11.367Z,100719.78
2022-12-11T01:50:50.960Z,100712.88
2022-12-11T01:53:28.147Z,100721.44
2022-12-11T01:56:02.960Z,100724.66
2022-12-11T01:58:43.504Z,100731.78
2022-12-11T02:01:22.383Z,100737.84
2022-12-11T02:03:59.148Z,100744.59
2022-12-11T02:06:42.816Z,100736.13
2022-12-11T02:09:20.350Z,100731.44
2022-12-11T02:12:05.021Z,100721.34
2022-12-11T02:14:43.151Z,100737.91
2022-12-11T02:17:20.972Z,100731.81
2022-12-11T02:20:06.856Z,100735.09
2022-12-11T02:23:15.852Z,100732.75
2022-12-11T02:26:00.604Z,100727.28
2022-12-11T02:28:43.919Z,100736.03
2022-12-11T02:31:23.536Z,100744.84
2022-12-11T02:34:01.648Z,100734.66
2022-12-11T02:36:43.320Z,100736.06
2022-12-11T02:39:19.162Z,100728.22
2022-12-11T02:41:54.203Z,100725.69
2022-12-11T02:44:33.578Z,100719.63
2022-12-11T02:47:09.681Z,100718.41
2022-12-11T02:49:50.765Z,100711.75
2022-12-11T02:52:25.886Z,100723.66
2022-12-11T02:55:04.439Z,100718.06
2022-12-11T02:57:43.495Z,100705.84
2022-12-11T03:00:19.174Z,100717.75
2022-12-11T03:02:52.148Z,100722.38
2022-12-11T03:05:24.484Z,100729.03
2022-12-11T03:07:56.006Z,100725.38
2022-12-11T03:10:28.029Z,100718.28
2022-12-11T03:13:02.458Z,100723.25
2022-12-11T03:15:45.204Z,100723.53
2022-12-11T03:18:23.680Z,100721.25
2022-12-11T03:21:07.484Z,100724.28
2022-12-11T03:23:44.689Z,100729.47
2022-12-11T03:26:19.430Z,100719.75
2022-12-11T03:28:59.579Z,100725.78
2022-12-11T03:31:42.496Z,100728.81
2022-12-11T03:34:21.739Z,100725.97
2022-12-11T03:36:56.258Z,100726.66
2022-12-11T03:39:34.157Z,100726.34
2022-12-11T03:42:11.870Z,100728.13
2022-12-11T03:44:47.458Z,100729.97
2022-12-11T03:47:25.449Z,100726.44
2022-12-11T03:49:58.694Z,100723.81
2022-12-11T03:52:32.737Z,100718.34
2022-12-11T03:55:07.052Z,100715.03
2022-12-11T03:57:40.936Z,100721.19
2022-12-11T04:00:16.776Z,100722.56
2022-12-11T04:03:11.203Z,100712.38
2022-12-11T04:05:45.476Z,100716.75
2022-12-11T04:08:17.439Z,100717.78
2022-12-11T04:10:48.822Z,100716.94
2022-12-11T04:16:37.524Z,100711.03
2022-12-11T04:19:24.896Z,100706.03
2022-12-11T04:22:08.658Z,100711.94
2022-12-11T04:24:40.790Z,100702.38
2022-12-11T04:27:12.716Z,100699.00
2022-12-11T04:29:47.155Z,100700.81
2022-12-11T04:32:18.855Z,100705.38
2022-12-11T04:34:58.602Z,100701.69
2022-12-11T04:37:31.135Z,100702.59
2022-12-11T04:40:04.208Z,100699.50
2022-12-11T04:42:36.049Z,100697.03
2022-12-11T04:45:11.318Z,100694.00
2022-12-11T04:47:44.445Z,100695.69
2022-12-11T04:50:19.749Z,100696.25
2022-12-11T04:52:51.781Z,100687.31
2022-12-11T04:55:24.306Z,100695.19
2022-12-11T04:57:56.346Z,100693.22
2022-12-11T05:00:28.726Z,100692.00
2022-12-11T05:03:00.511Z,100693.88
2022-12-11T05:05:35.535Z,100698.06
2022-12-11T05:08:08.494Z,100701.63
2022-12-11T05:10:43.424Z,100703.78
2022-12-11T05:13:17.967Z,100697.88
2022-12-11T05:15:50.293Z,100690.69
2022-12-11T05:18:22.195Z,100697.56
2022-12-11T05:21:02.822Z,100691.09
2022-12-11T05:23:34.404Z,100690.78
2022-12-11T05:26:08.488Z,100696.94
2022-12-11T05:28:41.901Z,100693.59
2022-12-11T05:31:17.510Z,100684.34
2022-12-11T05:33:50.987Z,100687.19
2022-12-11T05:36:28.317Z,100687.78
2022-12-11T05:39:01.487Z,100684.66
2022-12-11T05:41:35.045Z,100686.47
2022-12-11T05:44:06.756Z,100688.63
2022-12-11T05:46:38.732Z,100691.31
2022-12-11T05:49:10.519Z,100681.25
2022-12-11T05:51:45.093Z,100683.28
2022-12-11T05:54:16.814Z,100693.22
2022-12-11T05:56:48.914Z,100679.09
2022-12-11T05:59:21.963Z,100685.41
2022-12-11T06:01:53.911Z,100683.28
2022-12-11T06:04:25.498Z,100677.75
2022-12-11T06:07:00.472Z,100676.75
2022-12-11T06:09:31.905Z,100678.69
2022-12-11T06:12:03.926Z,100669.56
2022-12-11T06:14:35.409Z,100676.06
2022-12-11T06:17:07.669Z,100669.44
2022-12-11T06:19:39.042Z,100678.88
2022-12-11T06:22:13.539Z,100673.53
2022-12-11T06:24:45.254Z,100679.31
2022-12-11T06:27:19.350Z,100677.66
2022-12-11T06:29:50.983Z,100677.16
2022-12-11T06:32:22.729Z,100669.88
2022-12-11T06:34:54.159Z,100667.41
2022-12-11T06:37:28.743Z,100684.47
2022-12-11T06:39:59.952Z,100674.13
2022-12-11T06:42:33.127Z,100677.56
2022-12-11T06:45:04.923Z,100683.28
2022-12-11T06:47:36.560Z,100693.09
2022-12-11T06:50:08.629Z,100692.63
2022-12-11T06:52:43.428Z,100700.03
2022-12-11T06:55:14.902Z,100691.75
2022-12-11T06:57:46.996Z,100701.25
2022-12-11T07:00:19.890Z,100702.50
2022-12-11T07:02:53.996Z,100704.28
2022-12-11T07:05:25.747Z,100699.25
2022-12-11T07:08:00.983Z,100714.28
2022-12-11T07:10:32.601Z,100701.81
2022-12-11T07:13:04.422Z,100696.47
2022-12-11T07:15:40.211Z,100686.44
2022-12-11T07:18:13.232Z,100688.34
2022-12-11T07:20:44.996Z,100694.88
2022-12-11T07:23:19.560Z,100700.22
2022-12-11T07:25:51.214Z,100700.75
2022-12-11T07:28:23.547Z,100703.53
2022-12-11T07:30:55.228Z,100697.56
2022-12-11T07:33:27.105Z,100704.09
2022-12-11T07:35:58.520Z,100708.81
2022-12-11T07:38:33.512Z,100703.31
2022-12-11T07:41:05.513Z,100702.09
2022-12-11T07:43:38.305Z,100698.09
2022-12-11T07:46:12.564Z,100708.31
2022-12-11T07:48:46.138Z,100711.72
2022-12-11T07:51:19.846Z,100725.41
2022-12-11T07:53:54.576Z,100727.19
2022-12-11T07:56:26.477Z,100719.06
2022-12-11T07:58:58.247Z,100708.06
2022-12-11T08:01:31.669Z,100713.50
2022-12-11T08:04:04.001Z,100711.53
2022-12-11T08:06:38.366Z,100711.56
2022-12-11T08:09:21.230Z,100713.53
2022-12-11T08:11:53.928Z,100717.28
2022-12-11T08:14:25.872Z,100714.25
2022-12-11T08:16:58.160Z,100713.91
2022-12-11T08:19:30.699Z,100716.44
2022-12-11T08:22:01.870Z,100718.81
2022-12-11T08:24:36.084Z,100720.56
2022-12-11T08:27:07.480Z,100718.41
2022-12-11T08:29:38.920Z,100719.16
2022-12-11T08:32:12.487Z,100712.66
2022-12-11T08:34:44.390Z,100721.31
2022-12-11T08:37:15.599Z,100721.69
2022-12-11T08:39:50.221Z,100724.19
2022-12-11T08:42:21.674Z,100722.22
2022-12-11T08:44:53.396Z,100727.03
2022-12-11T08:47:24.680Z,100722.63
2022-12-11T08:49:57.115Z,100724.22
2022-12-11T08:52:28.330Z,100715.25
2022-12-11T08:55:02.175Z,100724.19
2022-12-11T15:09:00.445Z,100536.78
2022-12-11T15:12:14.895Z,100541.97
2022-12-11T15:14:53.836Z,100541.19
2022-12-11T15:17:27.596Z,100545.41
2022-12-11T15:20:07.534Z,100545.91
2022-12-11T15:22:40.337Z,100553.72
2022-12-11T15:25:31.819Z,100549.22
2022-12-11T15:28:06.976Z,100551.97
2022-12-11T15:30:39.697Z,100550.78
2022-12-11T15:33:34.798Z,100554.81
2022-12-11T15:36:09.776Z,100551.97
2022-12-11T15:38:43.737Z,100557.03
2022-12-11T15:41:21.376Z,100542.91
2022-12-11T15:43:59.086Z,100544.09
2022-12-11T15:46:31.029Z,100544.97
2022-12-11T15:49:02.211Z,100545.28
2022-12-11T15:51:34.500Z,100545.50
2022-12-11T15:54:08.432Z,100543.06
2022-12-11T15:56:40.094Z,100532.44
2022-12-11T15:59:14.717Z,100529.13
2022-12-11T16:01:46.724Z,100542.66
2022-12-11T16:04:18.030Z,100544.88
2022-12-11T16:06:49.486Z,100557.31
2022-12-11T16:09:26.167Z,100564.19
2022-12-11T16:11:57.616Z,100567.81
2022-12-11T16:14:32.977Z,100559.66
2022-12-11T16:17:05.016Z,100560.31
2022-12-11T16:19:37.415Z,100560.00
2022-12-11T16:22:11.377Z,100558.94
2022-12-11T16:24:44.556Z,100557.56
2022-12-11T16:27:22.816Z,100550.19
2022-12-11T16:29:57.887Z,100552.06
2022-12-11T16:32:30.040Z,100549.38
2022-12-11T16:35:06.126Z,100546.38
2022-12-11T16:37:38.309Z,100556.69
2022-12-11T16:40:11.785Z,100553.72
2022-12-11T16:42:47.158Z,100546.25
2022-12-11T16:46:14.647Z,100551.78
2022-12-11T16:49:41.914Z,100554.13
2022-12-11T16:52:28.916Z,100544.78
2022-12-11T16:55:01.655Z,100551.78
2022-12-11T16:57:34.923Z,100537.94
2022-12-11T17:00:09.194Z,100538.84
2022-12-11T17:02:41.677Z,100550.56
2022-12-11T17:05:17.036Z,100538.09
2022-12-11T17:07:49.211Z,100543.94
2022-12-11T17:10:21.957Z,100540.09
2022-12-11T17:12:54.297Z,100534.41
2022-12-11T17:15:26.915Z,100536.84
2022-12-11T17:17:59.175Z,100541.44
2022-12-11T17:20:34.657Z,100537.00
2022-12-11T17:23:06.914Z,100540.03
2022-12-11T17:25:42.636Z,100536.78
2022-12-11T17:28:15.915Z,100541.78
2022-12-11T17:30:50.534Z,100531.25
2022-12-11T17:33:22.656Z,100530.56
2022-12-11T17:35:58.115Z,100524.84
2022-12-11T17:38:30.436Z,100525.16
2022-12-11T17:41:03.155Z,100530.25
2022-12-11T17:43:35.556Z,100521.44
2022-12-11T17:46:08.648Z,100530.25
2022-12-11T17:48:41.136Z,100530.31
2022-12-11T17:51:21.473Z,100526.78
2022-12-11T17:53:53.937Z,100531.44
2022-12-11T17:56:27.196Z,100532.56
2022-12-11T17:58:59.060Z,100537.34
2022-12-11T18:01:31.176Z,100531.13
2022-12-11T18:04:05.312Z,100527.75
2022-12-11T18:06:39.931Z,100528.47
2022-12-11T18:09:11.575Z,100534.72
2022-12-11T18:11:43.848Z,100535.88
2022-12-11T18:14:17.613Z,100529.41
2022-12-11T18:16:50.087Z,100531.16
2022-12-11T18:19:23.045Z,100530.63
2022-12-11T18:21:58.148Z,100524.97
2022-12-11T18:24:35.115Z,100527.94
2022-12-11T18:27:10.812Z,100534.94
2022-12-11T18:29:42.401Z,100525.28
2022-12-11T18:32:14.491Z,100522.00
2022-12-11T18:34:46.167Z,100529.53
2022-12-11T18:37:26.226Z,100527.94
2022-12-11T18:39:59.478Z,100529.75
2022-12-11T18:42:33.194Z,100534.59
2022-12-11T18:45:07.285Z,100539.88
2022-12-11T18:47:40.226Z,100538.75
2022-12-11T18:50:12.299Z,100532.75
2022-12-11T18:52:46.859Z,100530.47
2022-12-11T18:55:18.328Z,100531.44
2022-12-11T18:57:50.530Z,100526.91
2022-12-11T19:00:23.376Z,100530.84
2022-12-11T19:02:55.636Z,100520.75
2022-12-11T19:05:27.128Z,100515.91
2022-12-11T19:08:01.450Z,100529.88
2022-12-11T19:10:32.956Z,100530.50
2022-12-11T19:13:04.526Z,100525.19
2022-12-11T19:15:36.117Z,100514.88
2022-12-11T19:18:07.981Z,100521.53
2022-12-11T19:20:56.757Z,100516.16
2022-12-11T19:23:38.008Z,100523.91
2022-12-11T19:26:13.786Z,100525.69
2022-12-11T19:28:45.511Z,100530.25
2022-12-11T19:31:19.811Z,100526.88
2022-12-11T19:33:52.427Z,100530.72
2022-12-11T19:36:25.970Z,100531.31
2022-12-11T19:39:02.129Z,100534.97
2022-12-11T19:41:34.938Z,100531.78
2022-12-11T19:44:07.659Z,100531.91
2022-12-11T19:46:39.650Z,100542.97
2022-12-11T19:49:11.595Z,100535.09
2022-12-11T19:51:45.068Z,100544.34
2022-12-11T19:54:21.431Z,100540.31
2022-12-11T19:56:53.856Z,100539.06
2022-12-11T19:59:25.732Z,100534.72
2022-12-11T20:01:57.311Z,100533.06
2022-12-11T20:04:29.386Z,100532.19
2022-12-11T20:07:01.424Z,100530.88
2022-12-11T20:09:36.815Z,100540.06
2022-12-11T20:12:10.929Z,100536.72
2022-12-11T20:14:42.782Z,100537.66
2022-12-11T20:17:15.234Z,100529.97
2022-12-11T20:19:47.435Z,100535.22
2022-12-11T20:22:19.132Z,100532.16
2022-12-11T20:24:53.724Z,100525.75
2022-12-11T20:27:26.570Z,100524.59
2022-12-11T20:29:58.103Z,100522.59
2022-12-11T20:32:30.474Z,100531.22
2022-12-11T20:35:02.573Z,100526.25
2022-12-11T20:37:34.285Z,100529.00
2022-12-11T20:40:10.397Z,100530.22
2022-12-11T20:42:41.846Z,100533.06
2022-12-11T20:45:14.514Z,100536.25
2022-12-11T20:47:46.854Z,100533.88
2022-12-11T20:50:18.598Z,100535.75
2022-12-11T20:52:50.057Z,100535.03
2022-12-11T20:55:26.638Z,100532.06
2022-12-11T20:57:57.799Z,100535.38
2022-12-11T21:00:32.500Z,100529.94
2022-12-11T21:03:04.332Z,100539.59
2022-12-11T21:05:37.184Z,100537.50
2022-12-11T21:08:09.750Z,100539.47
2022-12-11T21:10:48.275Z,100539.38
2022-12-11T21:13:20.692Z,100533.53
2022-12-11T21:15:57.017Z,100528.56
2022-12-11T21:18:29.456Z,100532.06
2022-12-11T21:21:02.019Z,100527.72
2022-12-11T21:23:34.493Z,100532.72
2022-12-11T21:26:10.274Z,100523.81
2022-12-11T21:28:42.593Z,100534.81
2022-12-11T21:31:17.634Z,100532.97
2022-12-11T21:33:50.533Z,100533.06
2022-12-11T21:36:23.162Z,100535.53
2022-12-11T21:38:56.033Z,100533.28
2022-12-11T21:41:37.580Z,100533.88
2022-12-11T21:47:01.813Z,100529.75
2022-12-11T21:49:44.606Z,100527.25
2022-12-11T21:52:21.019Z,100526.25
2022-12-11T21:54:56.728Z,100515.84
2022-12-11T21:57:37.322Z,100520.63
2022-12-11T22:00:11.187Z,100520.41
2022-12-11T22:02:44.043Z,100510.69
2022-12-11T22:05:16.585Z,100511.94
2022-12-11T22:07:49.106Z,100515.97
2022-12-11T22:10:21.108Z,100510.00
2022-12-11T22:12:56.269Z,100515.13
2022-12-11T22:15:28.288Z,100508.47
2022-12-11T22:18:00.365Z,100512.38
2022-12-11T22:20:33.787Z,100499.59
2022-12-11T22:23:06.147Z,100499.47
2022-12-11T22:25:38.247Z,100501.50
2022-12-11T22:28:13.126Z,100496.81
2022-12-11T22:30:45.574Z,100498.19
2022-12-11T22:33:18.507Z,100501.78
2022-12-11T22:35:50.587Z,100505.75
2022-12-11T22:38:23.167Z,100499.91
2022-12-11T22:40:56.025Z,100505.50
2022-12-11T22:43:31.106Z,100493.41
2022-12-11T22:46:03.213Z,100498.97
2022-12-11T22:48:35.767Z,100513.44
2022-12-11T22:51:08.909Z,100511.00
2022-12-11T22:53:41.445Z,100522.03
2022-12-11T22:56:15.688Z,100524.44
2022-12-11T22:58:50.869Z,100535.69
2022-12-11T23:01:26.527Z,100529.13
2022-12-11T23:03:58.885Z,100516.16
2022-12-11T23:06:30.807Z,100521.09
2022-12-11T23:09:04.427Z,100518.91
2022-12-11T23:11:39.697Z,100517.03
2022-12-11T23:14:19.287Z,100518.00
2022-12-11T23:16:51.198Z,100520.50
2022-12-11T23:19:25.707Z,100529.53
2022-12-11T23:21:58.836Z,100531.25
2022-12-11T23:24:31.146Z,100534.16
2022-12-11T23:27:03.585Z,100525.38
2022-12-11T23:29:39.266Z,100524.53
2022-12-11T23:32:13.308Z,100535.03
2022-12-11T23:34:45.625Z,100530.16
2022-12-11T23:37:18.167Z,100533.03
2022-12-11T23:39:52.207Z,100528.69
2022-12-11T23:42:27.265Z,100524.34
2022-12-11T23:45:06.016Z,100518.84
2022-12-11T23:47:49.205Z,100520.22
2022-12-11T23:50:22.443Z,100517.09
2022-12-11T23:52:55.662Z,100532.72
2022-12-11T23:55:28.434Z,100527.94
2022-12-11T23:58:00.206Z,100523.06
